マン島 の空港の天気 - METARとTAF

マン島空港 ( EGNS / IOM ) - マン島 Isle of Man
飛行場実況気象(Metar)
観測時間06/18 08:20 BST (06/18 07:20 UTC)
風向・風速西南西 8m/s
視程10km以上
天気現象
少しの雲 雲底高度 460m
全天の8割程度の雲 雲底高度 1220m
気温13℃
湿度77%
気圧1015hPa
METAREGNS 180720Z 24015KT 9999 FEW015 BKN040 13/09 Q1015 NOSIG
過去の天気等 Google飛行場航空写真 Wunderground天気予報

過去48時間のMETAR

飛行場予報(TAF)
発表時間: 6/18 05:00 BST (6/18 04:00 UTC)
予報対象時間: 18日6時 BST ~ 18日13時 BST
風向・風速西 7m/s
視程10km以上
全天の4割程度の雲 雲底高度 300m
全天の8割程度の雲 雲底高度 910m
18日9時 BST ~ 18日12時 BST に徐々に
風向・風速南南西 7m/s
18日12時 BST ~ 18日13時 BST に一時的に
全天の8割程度の雲 雲底高度 180m
TAF EGNS 180400Z 1805/1812 26013KT 9999 SCT010 BKN030
BECMG 1808/1811 20014KT
TEMPO 1811/1812 BKN006